FUA1403 LEMH-EGNJ
Flight info
| Callsign | FUA1403 |
|---|---|
| Flight time | 2h 27m |
| Altitude | 34000 |
| Route | MEROS N853 LUMAS Z16 MTL A3 MOU A27 BRY DCT KOPOR DCT VESAN L613 SANDY N57 DET N601 LESTA Y250 UPTON L975 GOLES |
| Aircraft | B738/M-SDE2E3FGHIRWXY/LB1 |
Departure
| Time | 2026-04-22 16:18 |
|---|---|
| Airport | Menorca Airport (LEMH) |
Arrival
| Time | 2026-04-22 18:45 |
|---|---|
| Airport | Humberside Airport (EGNJ) |
| Time | Latitude | Longitude | Altitude | Speed | Heading |
|---|---|---|---|---|---|
| 2026-04-22 15:43 | 39.86714 | 4.22463 | 287 ft | 0 kts | 99° |
| 2026-04-22 16:10 | 39.86716 | 4.22447 | 288 ft | 4 kts | 99° |
| 2026-04-22 16:11 | 39.86720 | 4.22412 | 294 ft | 4 kts | 99° |
| 2026-04-22 16:11 | 39.86720 | 4.22381 | 295 ft | 4 kts | 56° |
| 2026-04-22 16:11 | 39.86705 | 4.22367 | 290 ft | 2 kts | 9° |
| 2026-04-22 16:11 | 39.86684 | 4.22362 | 292 ft | 1 kts | 9° |
| 2026-04-22 16:14 | 39.86686 | 4.22363 | 289 ft | 1 kts | 9° |
| 2026-04-22 16:14 | 39.86712 | 4.22368 | 290 ft | 7 kts | 9° |
| 2026-04-22 16:14 | 39.86770 | 4.22380 | 291 ft | 10 kts | 9° |
| 2026-04-22 16:14 | 39.86836 | 4.22394 | 292 ft | 10 kts | 9° |
| 2026-04-22 16:15 | 39.86907 | 4.22374 | 295 ft | 12 kts | 303° |
| 2026-04-22 16:15 | 39.86930 | 4.22270 | 302 ft | 12 kts | 301° |
| 2026-04-22 16:15 | 39.87013 | 4.22258 | 302 ft | 14 kts | 10° |
| 2026-04-22 16:15 | 39.87123 | 4.22281 | 304 ft | 18 kts | 8° |
| 2026-04-22 16:16 | 39.87241 | 4.22306 | 308 ft | 17 kts | 9° |
| 2026-04-22 16:16 | 39.87348 | 4.22325 | 310 ft | 15 kts | 355° |
| 2026-04-22 16:16 | 39.87394 | 4.22222 | 310 ft | 15 kts | 270° |
| 2026-04-22 16:16 | 39.87352 | 4.22102 | 310 ft | 15 kts | 218° |
| 2026-04-22 16:17 | 39.87305 | 4.22080 | 309 ft | 0 kts | 190° |
| 2026-04-22 16:17 | 39.87304 | 4.22080 | 309 ft | 1 kts | 190° |
| 2026-04-22 16:17 | 39.87266 | 4.22071 | 307 ft | 15 kts | 190° |
| 2026-04-22 16:17 | 39.86872 | 4.21991 | 302 ft | 99 kts | 189° |
| 2026-04-22 16:18 | 39.85961 | 4.21801 | 316 ft | 166 kts | 188° |
| 2026-04-22 16:18 | 39.84774 | 4.21556 | 1150 ft | 168 kts | 189° |
| 2026-04-22 16:18 | 39.83573 | 4.21309 | 2048 ft | 181 kts | 189° |
| 2026-04-22 16:18 | 39.82233 | 4.21035 | 2602 ft | 209 kts | 189° |
| 2026-04-22 16:19 | 39.80707 | 4.20707 | 2927 ft | 235 kts | 189° |
| 2026-04-22 16:19 | 39.79021 | 4.20342 | 3311 ft | 258 kts | 189° |
| 2026-04-22 16:19 | 39.77214 | 4.20038 | 4062 ft | 270 kts | 178° |
| 2026-04-22 16:19 | 39.75456 | 4.20843 | 5084 ft | 275 kts | 142° |
| 2026-04-22 16:20 | 39.74309 | 4.22851 | 6018 ft | 284 kts | 109° |
| 2026-04-22 16:20 | 39.74180 | 4.25420 | 6873 ft | 291 kts | 75° |
| 2026-04-22 16:20 | 39.75115 | 4.27730 | 7804 ft | 291 kts | 48° |
| 2026-04-22 16:20 | 39.76428 | 4.29723 | 8692 ft | 298 kts | 54° |
| 2026-04-22 16:21 | 39.77632 | 4.31932 | 9576 ft | 300 kts | 45° |
| 2026-04-22 16:21 | 39.79212 | 4.33710 | 10453 ft | 302 kts | 32° |
| 2026-04-22 16:21 | 39.81061 | 4.35198 | 10795 ft | 324 kts | 23° |
| 2026-04-22 16:21 | 39.83227 | 4.36303 | 11000 ft | 346 kts | 12° |
| 2026-04-22 16:22 | 39.88144 | 4.36718 | 12193 ft | 358 kts | 349° |
| 2026-04-22 16:22 | 39.90540 | 4.35919 | 13075 ft | 355 kts | 338° |
| 2026-04-22 16:22 | 39.92751 | 4.34476 | 13778 ft | 359 kts | 326° |
| 2026-04-22 16:23 | 39.96272 | 4.29870 | 15122 ft | 367 kts | 302° |
| 2026-04-22 16:23 | 39.97657 | 4.27055 | 15862 ft | 370 kts | 310° |
| 2026-04-22 16:23 | 39.99724 | 4.25036 | 16523 ft | 379 kts | 334° |
| 2026-04-22 16:24 | 40.02320 | 4.24270 | 17196 ft | 389 kts | 353° |
| 2026-04-22 16:24 | 40.07803 | 4.25337 | 18388 ft | 405 kts | 8° |
| 2026-04-22 16:24 | 40.10585 | 4.26111 | 18950 ft | 410 kts | 8° |
| 2026-04-22 16:25 | 40.13358 | 4.26880 | 19554 ft | 413 kts | 8° |
| 2026-04-22 16:25 | 40.19035 | 4.28420 | 20700 ft | 419 kts | 8° |
| 2026-04-22 16:25 | 40.21891 | 4.29182 | 21231 ft | 422 kts | 7° |
| 2026-04-22 16:26 | 40.24777 | 4.29947 | 21752 ft | 425 kts | 7° |
| 2026-04-22 16:26 | 40.27691 | 4.30719 | 22259 ft | 428 kts | 7° |
| 2026-04-22 16:26 | 40.30621 | 4.31495 | 22743 ft | 431 kts | 7° |
| 2026-04-22 16:26 | 40.33531 | 4.32267 | 23203 ft | 434 kts | 7° |
| 2026-04-22 16:27 | 40.36506 | 4.33056 | 23653 ft | 436 kts | 7° |
| 2026-04-22 16:27 | 40.39489 | 4.33850 | 24107 ft | 439 kts | 8° |
| 2026-04-22 16:27 | 40.42489 | 4.34655 | 24530 ft | 442 kts | 8° |
| 2026-04-22 16:27 | 40.44495 | 4.35192 | 24806 ft | 444 kts | 8° |
| 2026-04-22 16:28 | 40.47539 | 4.36003 | 25215 ft | 446 kts | 8° |
| 2026-04-22 16:28 | 40.50589 | 4.36812 | 25614 ft | 448 kts | 7° |
| 2026-04-22 16:28 | 40.53668 | 4.37580 | 25989 ft | 451 kts | 7° |
| 2026-04-22 16:28 | 40.56772 | 4.38316 | 26353 ft | 453 kts | 6° |
| 2026-04-22 16:29 | 40.59882 | 4.39042 | 26712 ft | 455 kts | 6° |
| 2026-04-22 16:29 | 40.63009 | 4.39766 | 27060 ft | 457 kts | 6° |
| 2026-04-22 16:29 | 40.66147 | 4.40497 | 27394 ft | 459 kts | 6° |
| 2026-04-22 16:29 | 40.69300 | 4.41244 | 27717 ft | 462 kts | 6° |
| 2026-04-22 16:30 | 40.71399 | 4.41747 | 27937 ft | 463 kts | 6° |
| 2026-04-22 16:30 | 40.75610 | 4.42763 | 28361 ft | 465 kts | 7° |
| 2026-04-22 16:30 | 40.78786 | 4.43533 | 28775 ft | 464 kts | 7° |
| 2026-04-22 16:30 | 40.81955 | 4.44301 | 29258 ft | 461 kts | 7° |
| 2026-04-22 16:31 | 40.85103 | 4.45064 | 29718 ft | 459 kts | 7° |
| 2026-04-22 16:31 | 40.88239 | 4.45820 | 30119 ft | 458 kts | 6° |
| 2026-04-22 16:31 | 40.91379 | 4.46578 | 30508 ft | 457 kts | 6° |
| 2026-04-22 16:31 | 40.94498 | 4.47332 | 30976 ft | 454 kts | 6° |
| 2026-04-22 16:32 | 40.97595 | 4.48083 | 31477 ft | 450 kts | 6° |
| 2026-04-22 16:32 | 41.00668 | 4.48830 | 31972 ft | 446 kts | 6° |
| 2026-04-22 16:32 | 41.03708 | 4.49569 | 32403 ft | 443 kts | 6° |
| 2026-04-22 16:32 | 41.06729 | 4.50303 | 32816 ft | 441 kts | 6° |
| 2026-04-22 16:33 | 41.09743 | 4.51037 | 33265 ft | 437 kts | 6° |
| 2026-04-22 16:33 | 41.12688 | 4.51751 | 33647 ft | 435 kts | 6° |
| 2026-04-22 16:33 | 41.15658 | 4.52472 | 34035 ft | 433 kts | 6° |
| 2026-04-22 16:33 | 41.18606 | 4.53189 | 34423 ft | 430 kts | 6° |
| 2026-04-22 16:34 | 41.21581 | 4.53914 | 34756 ft | 429 kts | 6° |
| 2026-04-22 16:34 | 41.24481 | 4.54621 | 35007 ft | 429 kts | 6° |
| 2026-04-22 16:34 | 41.27421 | 4.55339 | 35288 ft | 429 kts | 6° |
| 2026-04-22 16:34 | 41.30351 | 4.56056 | 35578 ft | 428 kts | 6° |
| 2026-04-22 16:35 | 41.33282 | 4.56774 | 35893 ft | 426 kts | 6° |
| 2026-04-22 16:35 | 41.36203 | 4.57491 | 36037 ft | 429 kts | 7° |
| 2026-04-22 16:35 | 41.42116 | 4.58942 | 36035 ft | 431 kts | 6° |
| 2026-04-22 16:36 | 41.47975 | 4.60386 | 36027 ft | 425 kts | 7° |
| 2026-04-22 16:36 | 41.53774 | 4.61819 | 36038 ft | 423 kts | 6° |
| 2026-04-22 16:37 | 41.59551 | 4.63245 | 36051 ft | 422 kts | 7° |
| 2026-04-22 16:37 | 41.65329 | 4.64676 | 36044 ft | 422 kts | 7° |
| 2026-04-22 16:38 | 41.71065 | 4.66099 | 36056 ft | 422 kts | 6° |
| 2026-04-22 16:38 | 41.76818 | 4.67852 | 36054 ft | 426 kts | 12° |
| 2026-04-22 16:39 | 41.82511 | 4.70153 | 36052 ft | 427 kts | 13° |
| 2026-04-22 16:39 | 41.88208 | 4.72495 | 36066 ft | 428 kts | 13° |
| 2026-04-22 16:40 | 41.93921 | 4.74795 | 36065 ft | 429 kts | 12° |
| 2026-04-22 16:41 | 42.02490 | 4.78209 | 36070 ft | 430 kts | 12° |
| 2026-04-22 16:41 | 42.08227 | 4.80495 | 36067 ft | 430 kts | 12° |
| 2026-04-22 16:42 | 42.13972 | 4.82788 | 36071 ft | 430 kts | 12° |
| 2026-04-22 16:42 | 42.19673 | 4.85072 | 36080 ft | 429 kts | 12° |
| 2026-04-22 16:43 | 42.25403 | 4.87371 | 36082 ft | 428 kts | 12° |
| 2026-04-22 16:43 | 42.31126 | 4.89670 | 36083 ft | 428 kts | 12° |
| 2026-04-22 16:44 | 42.36799 | 4.91953 | 36084 ft | 428 kts | 12° |
| 2026-04-22 16:44 | 42.42506 | 4.94256 | 36087 ft | 427 kts | 12° |
| 2026-04-22 16:45 | 42.48206 | 4.96566 | 36096 ft | 427 kts | 12° |
| 2026-04-22 16:45 | 42.53895 | 4.98867 | 36092 ft | 427 kts | 12° |
| 2026-04-22 16:46 | 42.59683 | 5.00244 | 36101 ft | 420 kts | 0° |
| 2026-04-22 16:46 | 42.65529 | 5.00782 | 36093 ft | 421 kts | 0° |
| 2026-04-22 16:47 | 42.71330 | 5.01367 | 36103 ft | 421 kts | 0° |
| 2026-04-22 16:47 | 42.77175 | 5.01997 | 36102 ft | 421 kts | 0° |
| 2026-04-22 16:48 | 42.83036 | 5.02629 | 36101 ft | 422 kts | 0° |
| 2026-04-22 16:48 | 42.88887 | 5.03257 | 36102 ft | 422 kts | 0° |
| 2026-04-22 16:49 | 42.94747 | 5.03891 | 36103 ft | 422 kts | 0° |
| 2026-04-22 16:49 | 43.00598 | 5.04527 | 36103 ft | 422 kts | 0° |
| 2026-04-22 16:50 | 43.06416 | 5.05159 | 36106 ft | 422 kts | 0° |
| 2026-04-22 16:50 | 43.12270 | 5.05791 | 36099 ft | 422 kts | 0° |
| 2026-04-22 16:51 | 43.18130 | 5.06430 | 36100 ft | 422 kts | 0° |
| 2026-04-22 16:51 | 43.23984 | 5.07070 | 36099 ft | 421 kts | 0° |
| 2026-04-22 16:52 | 43.29827 | 5.07711 | 36101 ft | 420 kts | 0° |
| 2026-04-22 16:52 | 43.35624 | 5.08284 | 36099 ft | 418 kts | 356° |
| 2026-04-22 16:53 | 43.41317 | 5.07169 | 36103 ft | 411 kts | 341° |
| 2026-04-22 16:53 | 43.46642 | 5.04341 | 36096 ft | 409 kts | 335° |
| 2026-04-22 16:54 | 43.51911 | 5.01348 | 36101 ft | 409 kts | 335° |
| 2026-04-22 16:54 | 43.57155 | 4.98398 | 36105 ft | 409 kts | 336° |
| 2026-04-22 16:55 | 43.62441 | 4.95446 | 36102 ft | 409 kts | 336° |
| 2026-04-22 16:55 | 43.67726 | 4.92498 | 36105 ft | 409 kts | 336° |
| 2026-04-22 16:56 | 43.73008 | 4.89548 | 36100 ft | 409 kts | 336° |
| 2026-04-22 16:56 | 43.78276 | 4.86597 | 36113 ft | 409 kts | 336° |
| 2026-04-22 16:57 | 43.83554 | 4.83636 | 36104 ft | 409 kts | 336° |
| 2026-04-22 16:57 | 43.88825 | 4.80674 | 36100 ft | 408 kts | 336° |
| 2026-04-22 16:58 | 43.93200 | 4.78210 | 36104 ft | 408 kts | 336° |
| 2026-04-22 16:58 | 43.99450 | 4.75292 | 36114 ft | 410 kts | 347° |
| 2026-04-22 16:59 | 44.05176 | 4.74871 | 36132 ft | 415 kts | 358° |
| 2026-04-22 16:59 | 44.10924 | 4.75307 | 36124 ft | 414 kts | 358° |
| 2026-04-22 17:00 | 44.16681 | 4.75665 | 36129 ft | 414 kts | 358° |
| 2026-04-22 17:00 | 44.25285 | 4.76164 | 36131 ft | 413 kts | 358° |
| 2026-04-22 17:01 | 44.31035 | 4.76506 | 36129 ft | 413 kts | 358° |
| 2026-04-22 17:01 | 44.36791 | 4.76848 | 36134 ft | 413 kts | 358° |
| 2026-04-22 17:02 | 44.42506 | 4.77195 | 36122 ft | 413 kts | 358° |
| 2026-04-22 17:02 | 44.48267 | 4.77545 | 36129 ft | 414 kts | 358° |
| 2026-04-22 17:03 | 44.54022 | 4.77702 | 36113 ft | 410 kts | 351° |
| 2026-04-22 17:03 | 44.59537 | 4.76022 | 36112 ft | 404 kts | 337° |
| 2026-04-22 17:04 | 44.64781 | 4.73269 | 36105 ft | 404 kts | 336° |
| 2026-04-22 17:04 | 44.70051 | 4.70514 | 36102 ft | 403 kts | 337° |
| 2026-04-22 17:05 | 44.75330 | 4.67779 | 36112 ft | 404 kts | 337° |
| 2026-04-22 17:05 | 44.80580 | 4.65062 | 36112 ft | 404 kts | 337° |
| 2026-04-22 17:06 | 44.85864 | 4.62327 | 36106 ft | 404 kts | 337° |
| 2026-04-22 17:06 | 44.91141 | 4.59592 | 36107 ft | 405 kts | 337° |
| 2026-04-22 17:07 | 44.96432 | 4.56845 | 36105 ft | 405 kts | 337° |
| 2026-04-22 17:07 | 45.01721 | 4.54095 | 36092 ft | 405 kts | 337° |
| 2026-04-22 17:08 | 45.07014 | 4.51338 | 36105 ft | 405 kts | 336° |
| 2026-04-22 17:08 | 45.12302 | 4.48575 | 36102 ft | 405 kts | 336° |
| 2026-04-22 17:09 | 45.17589 | 4.45805 | 36105 ft | 405 kts | 336° |
| 2026-04-22 17:09 | 45.22870 | 4.43031 | 36104 ft | 405 kts | 336° |
| 2026-04-22 17:10 | 45.28115 | 4.40276 | 36112 ft | 404 kts | 336° |
| 2026-04-22 17:10 | 45.33395 | 4.37495 | 36109 ft | 404 kts | 336° |
| 2026-04-22 17:11 | 45.38671 | 4.34707 | 36109 ft | 403 kts | 336° |
| 2026-04-22 17:11 | 45.43904 | 4.31938 | 36104 ft | 404 kts | 336° |
| 2026-04-22 17:12 | 45.49169 | 4.29148 | 36126 ft | 403 kts | 336° |
| 2026-04-22 17:12 | 45.54437 | 4.26352 | 36131 ft | 403 kts | 336° |
| 2026-04-22 17:13 | 45.59698 | 4.23556 | 36133 ft | 403 kts | 336° |
| 2026-04-22 17:13 | 45.64948 | 4.20760 | 36124 ft | 403 kts | 336° |
| 2026-04-22 17:14 | 45.70170 | 4.17975 | 36128 ft | 403 kts | 336° |
| 2026-04-22 17:14 | 45.75422 | 4.15167 | 36125 ft | 403 kts | 336° |
| 2026-04-22 17:15 | 45.79792 | 4.12825 | 36140 ft | 403 kts | 336° |
| 2026-04-22 17:15 | 45.85039 | 4.09994 | 36126 ft | 403 kts | 336° |
| 2026-04-22 17:16 | 45.90303 | 4.07162 | 36120 ft | 404 kts | 336° |
| 2026-04-22 17:16 | 45.95568 | 4.04325 | 36121 ft | 404 kts | 336° |
| 2026-04-22 17:17 | 46.00844 | 4.01469 | 36114 ft | 404 kts | 336° |
| 2026-04-22 17:17 | 46.06076 | 3.98637 | 36111 ft | 404 kts | 336° |
| 2026-04-22 17:18 | 46.11334 | 3.95780 | 36110 ft | 404 kts | 336° |
| 2026-04-22 17:18 | 46.16601 | 3.92932 | 36112 ft | 404 kts | 336° |
| 2026-04-22 17:19 | 46.27125 | 3.87242 | 36098 ft | 403 kts | 336° |
| 2026-04-22 17:20 | 46.37629 | 3.81528 | 36102 ft | 403 kts | 335° |
| 2026-04-22 17:21 | 46.45429 | 3.76970 | 36102 ft | 403 kts | 335° |
| 2026-04-22 17:22 | 46.53318 | 3.72627 | 36105 ft | 404 kts | 336° |
| 2026-04-22 17:23 | 46.61188 | 3.68360 | 36110 ft | 404 kts | 336° |
| 2026-04-22 17:23 | 46.69095 | 3.64036 | 36110 ft | 404 kts | 337° |
| 2026-04-22 17:24 | 46.74640 | 3.62302 | 36122 ft | 410 kts | 348° |
| 2026-04-22 17:24 | 46.80308 | 3.61266 | 36114 ft | 410 kts | 348° |
| 2026-04-22 17:25 | 46.85932 | 3.60217 | 36118 ft | 410 kts | 348° |
| 2026-04-22 17:25 | 46.91603 | 3.59136 | 36124 ft | 410 kts | 348° |
| 2026-04-22 17:26 | 46.97271 | 3.58045 | 36124 ft | 410 kts | 348° |
| 2026-04-22 17:26 | 47.02925 | 3.56954 | 36123 ft | 410 kts | 348° |
| 2026-04-22 17:27 | 47.08548 | 3.55864 | 36121 ft | 410 kts | 348° |
| 2026-04-22 17:27 | 47.14201 | 3.54769 | 36131 ft | 409 kts | 348° |
| 2026-04-22 17:28 | 47.19856 | 3.53673 | 36129 ft | 409 kts | 348° |
| 2026-04-22 17:28 | 47.25498 | 3.52574 | 36144 ft | 409 kts | 348° |
| 2026-04-22 17:29 | 47.31140 | 3.51474 | 36144 ft | 409 kts | 348° |
| 2026-04-22 17:29 | 47.36787 | 3.50372 | 36142 ft | 409 kts | 348° |
| 2026-04-22 17:30 | 47.42440 | 3.49265 | 36128 ft | 409 kts | 348° |
| 2026-04-22 17:30 | 47.48080 | 3.48159 | 36149 ft | 409 kts | 348° |
| 2026-04-22 17:31 | 47.53728 | 3.47048 | 36149 ft | 409 kts | 348° |
| 2026-04-22 17:31 | 47.59346 | 3.45939 | 36146 ft | 409 kts | 348° |
| 2026-04-22 17:32 | 47.64989 | 3.44831 | 36161 ft | 409 kts | 348° |
| 2026-04-22 17:32 | 47.70634 | 3.43714 | 36155 ft | 409 kts | 348° |
| 2026-04-22 17:33 | 47.76278 | 3.42585 | 36164 ft | 409 kts | 348° |
| 2026-04-22 17:33 | 47.81920 | 3.41442 | 36170 ft | 409 kts | 348° |
| 2026-04-22 17:34 | 47.87563 | 3.40300 | 36171 ft | 409 kts | 348° |
| 2026-04-22 17:34 | 47.93216 | 3.39157 | 36175 ft | 409 kts | 348° |
| 2026-04-22 17:35 | 47.98866 | 3.38012 | 36174 ft | 410 kts | 348° |
| 2026-04-22 17:35 | 48.04515 | 3.36868 | 36175 ft | 409 kts | 348° |
| 2026-04-22 17:36 | 48.10174 | 3.35716 | 36183 ft | 410 kts | 348° |
| 2026-04-22 17:36 | 48.15799 | 3.34570 | 36187 ft | 411 kts | 348° |
| 2026-04-22 17:37 | 48.21485 | 3.33409 | 36186 ft | 411 kts | 348° |
| 2026-04-22 17:37 | 48.27171 | 3.32250 | 36190 ft | 412 kts | 348° |
| 2026-04-22 17:38 | 48.32829 | 3.31089 | 36195 ft | 412 kts | 348° |
| 2026-04-22 17:38 | 48.38522 | 3.29883 | 36200 ft | 412 kts | 345° |
| 2026-04-22 17:39 | 48.43901 | 3.27138 | 36201 ft | 407 kts | 331° |
| 2026-04-22 17:40 | 48.51411 | 3.21251 | 36200 ft | 407 kts | 331° |
| 2026-04-22 17:40 | 48.56446 | 3.17313 | 36203 ft | 408 kts | 331° |
| 2026-04-22 17:41 | 48.61500 | 3.13382 | 36205 ft | 409 kts | 331° |
| 2026-04-22 17:41 | 48.66540 | 3.09464 | 36211 ft | 409 kts | 331° |
| 2026-04-22 17:42 | 48.71612 | 3.05512 | 36212 ft | 410 kts | 331° |
| 2026-04-22 17:42 | 48.75834 | 3.02216 | 36213 ft | 410 kts | 331° |
| 2026-04-22 17:43 | 48.81770 | 2.97571 | 36212 ft | 411 kts | 331° |
| 2026-04-22 17:43 | 48.86855 | 2.93581 | 36214 ft | 412 kts | 331° |
| 2026-04-22 17:44 | 48.91950 | 2.89577 | 36213 ft | 412 kts | 331° |
| 2026-04-22 17:44 | 48.97047 | 2.85561 | 36208 ft | 413 kts | 331° |
| 2026-04-22 17:45 | 49.02113 | 2.81560 | 36213 ft | 412 kts | 331° |
| 2026-04-22 17:45 | 49.07204 | 2.77529 | 36212 ft | 412 kts | 331° |
| 2026-04-22 17:46 | 49.12294 | 2.73490 | 36213 ft | 412 kts | 331° |
| 2026-04-22 17:46 | 49.17383 | 2.69442 | 36213 ft | 412 kts | 331° |
| 2026-04-22 17:47 | 49.22476 | 2.65382 | 36216 ft | 412 kts | 331° |
| 2026-04-22 17:47 | 49.27549 | 2.61329 | 36222 ft | 412 kts | 331° |
| 2026-04-22 17:48 | 49.31770 | 2.57949 | 36222 ft | 412 kts | 331° |
| 2026-04-22 17:48 | 49.37697 | 2.53192 | 36231 ft | 411 kts | 331° |
| 2026-04-22 17:49 | 49.42776 | 2.49108 | 36231 ft | 412 kts | 331° |
| 2026-04-22 17:49 | 49.47819 | 2.45041 | 36231 ft | 412 kts | 330° |
| 2026-04-22 17:50 | 49.53026 | 2.41300 | 36228 ft | 415 kts | 340° |
| 2026-04-22 17:50 | 49.58581 | 2.38804 | 36234 ft | 415 kts | 342° |
| 2026-04-22 17:51 | 49.64134 | 2.36334 | 36238 ft | 416 kts | 341° |
| 2026-04-22 17:51 | 49.69695 | 2.33824 | 36249 ft | 416 kts | 341° |
| 2026-04-22 17:52 | 49.75242 | 2.31298 | 36250 ft | 416 kts | 341° |
| 2026-04-22 17:52 | 49.80797 | 2.28757 | 36248 ft | 416 kts | 341° |
| 2026-04-22 17:53 | 49.86351 | 2.26212 | 36258 ft | 416 kts | 341° |
| 2026-04-22 17:53 | 49.91906 | 2.23660 | 36257 ft | 416 kts | 341° |
| 2026-04-22 17:54 | 49.97430 | 2.21117 | 36262 ft | 415 kts | 341° |
| 2026-04-22 17:54 | 50.02985 | 2.18553 | 36260 ft | 416 kts | 341° |
| 2026-04-22 17:55 | 50.07604 | 2.16417 | 36268 ft | 416 kts | 341° |
| 2026-04-22 17:55 | 50.14088 | 2.13412 | 36267 ft | 415 kts | 341° |
| 2026-04-22 17:56 | 50.19628 | 2.10836 | 36277 ft | 416 kts | 341° |
| 2026-04-22 17:56 | 50.25139 | 2.08270 | 36272 ft | 416 kts | 341° |
| 2026-04-22 17:57 | 50.30686 | 2.05682 | 36281 ft | 416 kts | 341° |
| 2026-04-22 17:57 | 50.36127 | 2.02699 | 36287 ft | 414 kts | 332° |
| 2026-04-22 17:58 | 50.40917 | 1.97733 | 36287 ft | 413 kts | 319° |
| 2026-04-22 17:58 | 50.45235 | 1.91778 | 36285 ft | 414 kts | 319° |
| 2026-04-22 17:59 | 50.49570 | 1.85780 | 36299 ft | 415 kts | 319° |
| 2026-04-22 17:59 | 50.53908 | 1.79823 | 36289 ft | 416 kts | 319° |
| 2026-04-22 18:00 | 50.57569 | 1.74806 | 36296 ft | 417 kts | 319° |
| 2026-04-22 18:00 | 50.62656 | 1.67818 | 36300 ft | 417 kts | 319° |
| 2026-04-22 18:01 | 50.67012 | 1.61809 | 36292 ft | 418 kts | 319° |
| 2026-04-22 18:01 | 50.71382 | 1.55757 | 36299 ft | 418 kts | 319° |
| 2026-04-22 18:02 | 50.75059 | 1.50659 | 36321 ft | 419 kts | 319° |
| 2026-04-22 18:02 | 50.79413 | 1.44603 | 36310 ft | 420 kts | 319° |
| 2026-04-22 18:03 | 50.83804 | 1.38485 | 36312 ft | 420 kts | 319° |
| 2026-04-22 18:03 | 50.88187 | 1.32360 | 36312 ft | 421 kts | 319° |
| 2026-04-22 18:04 | 50.92579 | 1.26211 | 36311 ft | 421 kts | 319° |
| 2026-04-22 18:04 | 50.96969 | 1.20050 | 36315 ft | 422 kts | 319° |
| 2026-04-22 18:05 | 51.01343 | 1.13900 | 36321 ft | 422 kts | 319° |
| 2026-04-22 18:05 | 51.05738 | 1.07691 | 36320 ft | 423 kts | 317° |
| 2026-04-22 18:06 | 51.09668 | 1.00710 | 36325 ft | 424 kts | 309° |
| 2026-04-22 18:06 | 51.13319 | 0.93393 | 36327 ft | 424 kts | 309° |
| 2026-04-22 18:07 | 51.17018 | 0.86054 | 36330 ft | 424 kts | 310° |
| 2026-04-22 18:07 | 51.20737 | 0.78747 | 36333 ft | 424 kts | 310° |
| 2026-04-22 18:08 | 51.24463 | 0.71433 | 36329 ft | 424 kts | 310° |
| 2026-04-22 18:08 | 51.28153 | 0.64161 | 36341 ft | 423 kts | 310° |
| 2026-04-22 18:09 | 51.31996 | 0.57006 | 36353 ft | 423 kts | 315° |
| 2026-04-22 18:09 | 51.36212 | 0.50454 | 36358 ft | 423 kts | 316° |
| 2026-04-22 18:10 | 51.40468 | 0.43926 | 36361 ft | 424 kts | 316° |
| 2026-04-22 18:10 | 51.44697 | 0.37343 | 36368 ft | 424 kts | 316° |
| 2026-04-22 18:11 | 51.48886 | 0.30763 | 36368 ft | 424 kts | 316° |
| 2026-04-22 18:11 | 51.53102 | 0.24108 | 36370 ft | 425 kts | 316° |
| 2026-04-22 18:12 | 51.57323 | 0.17430 | 36377 ft | 425 kts | 316° |
| 2026-04-22 18:12 | 51.60820 | 0.11884 | 36375 ft | 425 kts | 316° |
| 2026-04-22 18:13 | 51.65746 | 0.04055 | 36371 ft | 425 kts | 316° |
| 2026-04-22 18:13 | 51.69953 | -0.02648 | 36368 ft | 425 kts | 315° |
| 2026-04-22 18:14 | 51.74152 | -0.09312 | 36359 ft | 425 kts | 317° |
| 2026-04-22 18:14 | 51.79022 | -0.14717 | 36366 ft | 426 kts | 328° |
| 2026-04-22 18:15 | 51.84158 | -0.19503 | 36360 ft | 425 kts | 328° |
| 2026-04-22 18:15 | 51.89268 | -0.24309 | 36346 ft | 424 kts | 327° |
| 2026-04-22 18:16 | 51.94313 | -0.29125 | 36349 ft | 423 kts | 327° |
| 2026-04-22 18:16 | 51.99390 | -0.33999 | 36347 ft | 423 kts | 327° |
| 2026-04-22 18:17 | 52.04468 | -0.38880 | 36338 ft | 424 kts | 328° |
| 2026-04-22 18:17 | 52.09515 | -0.43748 | 36354 ft | 425 kts | 328° |
| 2026-04-22 18:18 | 52.14620 | -0.48688 | 36354 ft | 427 kts | 328° |
| 2026-04-22 18:18 | 52.17196 | -0.51185 | 35943 ft | 434 kts | 328° |
| 2026-04-22 18:18 | 52.19784 | -0.53695 | 35386 ft | 432 kts | 328° |
| 2026-04-22 18:18 | 52.22351 | -0.56189 | 34789 ft | 429 kts | 327° |
| 2026-04-22 18:19 | 52.24908 | -0.58677 | 34144 ft | 427 kts | 327° |
| 2026-04-22 18:19 | 52.27454 | -0.61160 | 33498 ft | 424 kts | 327° |
| 2026-04-22 18:19 | 52.29975 | -0.63621 | 33000 ft | 419 kts | 327° |
| 2026-04-22 18:19 | 52.32463 | -0.66051 | 32524 ft | 413 kts | 327° |
| 2026-04-22 18:20 | 52.34915 | -0.68449 | 32063 ft | 408 kts | 327° |
| 2026-04-22 18:20 | 52.37326 | -0.70813 | 31604 ft | 402 kts | 327° |
| 2026-04-22 18:20 | 52.39715 | -0.73158 | 31168 ft | 397 kts | 327° |
| 2026-04-22 18:20 | 52.42067 | -0.75471 | 30717 ft | 392 kts | 327° |
| 2026-04-22 18:21 | 52.44393 | -0.77761 | 30281 ft | 388 kts | 327° |
| 2026-04-22 18:21 | 52.46663 | -0.79996 | 29849 ft | 383 kts | 327° |
| 2026-04-22 18:21 | 52.48938 | -0.82240 | 29406 ft | 379 kts | 327° |
| 2026-04-22 18:21 | 52.51184 | -0.84457 | 28970 ft | 375 kts | 328° |
| 2026-04-22 18:22 | 52.53414 | -0.86659 | 28515 ft | 371 kts | 328° |
| 2026-04-22 18:22 | 52.55623 | -0.88842 | 28093 ft | 370 kts | 328° |
| 2026-04-22 18:22 | 52.57853 | -0.91050 | 27676 ft | 381 kts | 328° |
| 2026-04-22 18:22 | 52.60159 | -0.93339 | 27234 ft | 391 kts | 328° |
| 2026-04-22 18:23 | 52.62473 | -0.95637 | 26747 ft | 386 kts | 328° |
| 2026-04-22 18:23 | 52.64756 | -0.97909 | 26285 ft | 381 kts | 328° |
| 2026-04-22 18:23 | 52.67018 | -1.00159 | 25840 ft | 376 kts | 328° |
| 2026-04-22 18:24 | 52.71449 | -1.04581 | 24960 ft | 368 kts | 329° |
| 2026-04-22 18:24 | 52.73697 | -1.06552 | 24519 ft | 364 kts | 336° |
| 2026-04-22 18:24 | 52.78536 | -1.08689 | 23674 ft | 357 kts | 349° |
| 2026-04-22 18:25 | 52.80976 | -1.09413 | 23244 ft | 356 kts | 349° |
| 2026-04-22 18:25 | 52.83406 | -1.10121 | 22833 ft | 354 kts | 349° |
| 2026-04-22 18:25 | 52.85806 | -1.10825 | 22424 ft | 356 kts | 349° |
| 2026-04-22 18:26 | 52.90835 | -1.12325 | 21562 ft | 371 kts | 349° |
| 2026-04-22 18:26 | 52.93367 | -1.13090 | 21110 ft | 368 kts | 349° |
| 2026-04-22 18:26 | 52.95867 | -1.13850 | 20671 ft | 363 kts | 349° |
| 2026-04-22 18:26 | 52.98347 | -1.14606 | 20240 ft | 360 kts | 349° |
| 2026-04-22 18:27 | 53.00800 | -1.15355 | 19818 ft | 356 kts | 349° |
| 2026-04-22 18:27 | 53.03224 | -1.16097 | 19403 ft | 353 kts | 349° |
| 2026-04-22 18:27 | 53.05630 | -1.16831 | 18968 ft | 350 kts | 349° |
| 2026-04-22 18:27 | 53.08015 | -1.17561 | 18572 ft | 347 kts | 350° |
| 2026-04-22 18:28 | 53.10377 | -1.18285 | 18170 ft | 344 kts | 350° |
| 2026-04-22 18:28 | 53.12720 | -1.19005 | 17765 ft | 341 kts | 350° |
| 2026-04-22 18:28 | 53.15056 | -1.19725 | 17367 ft | 342 kts | 350° |
| 2026-04-22 18:28 | 53.17396 | -1.20445 | 16954 ft | 343 kts | 350° |
| 2026-04-22 18:29 | 53.19760 | -1.21174 | 16546 ft | 351 kts | 349° |
| 2026-04-22 18:29 | 53.22163 | -1.21916 | 16112 ft | 358 kts | 349° |
| 2026-04-22 18:29 | 53.24611 | -1.22674 | 15685 ft | 357 kts | 349° |
| 2026-04-22 18:29 | 53.27040 | -1.23427 | 15258 ft | 353 kts | 349° |
| 2026-04-22 18:30 | 53.29444 | -1.24172 | 14836 ft | 350 kts | 349° |
| 2026-04-22 18:30 | 53.34185 | -1.25644 | 14017 ft | 343 kts | 350° |
| 2026-04-22 18:30 | 53.36527 | -1.26370 | 13615 ft | 340 kts | 350° |
| 2026-04-22 18:31 | 53.38846 | -1.27092 | 13224 ft | 338 kts | 350° |
| 2026-04-22 18:31 | 53.41149 | -1.27811 | 12824 ft | 335 kts | 350° |
| 2026-04-22 18:31 | 53.43450 | -1.28353 | 12431 ft | 331 kts | 356° |
| 2026-04-22 18:31 | 53.45712 | -1.28600 | 12060 ft | 329 kts | 358° |
| 2026-04-22 18:32 | 53.47994 | -1.28817 | 11674 ft | 326 kts | 357° |
| 2026-04-22 18:32 | 53.50253 | -1.29057 | 11301 ft | 324 kts | 357° |
| 2026-04-22 18:32 | 53.52494 | -1.29316 | 10925 ft | 322 kts | 357° |
| 2026-04-22 18:32 | 53.54709 | -1.29469 | 10716 ft | 314 kts | 7° |
| 2026-04-22 18:33 | 53.56741 | -1.28400 | 10582 ft | 304 kts | 33° |
| 2026-04-22 18:33 | 53.58301 | -1.26113 | 10474 ft | 296 kts | 55° |
| 2026-04-22 18:33 | 53.59315 | -1.23153 | 10339 ft | 290 kts | 72° |
| 2026-04-22 18:33 | 53.59786 | -1.19875 | 9953 ft | 286 kts | 83° |
| 2026-04-22 18:34 | 53.60081 | -1.16583 | 9633 ft | 283 kts | 84° |
| 2026-04-22 18:34 | 53.60366 | -1.13323 | 9327 ft | 280 kts | 84° |
| 2026-04-22 18:34 | 53.60651 | -1.10089 | 9030 ft | 277 kts | 87° |
| 2026-04-22 18:34 | 53.60452 | -1.06943 | 8774 ft | 267 kts | 108° |
| 2026-04-22 18:35 | 53.59817 | -1.04039 | 8497 ft | 263 kts | 114° |
| 2026-04-22 18:35 | 53.59097 | -1.01225 | 8217 ft | 260 kts | 115° |
| 2026-04-22 18:35 | 53.58379 | -0.98490 | 7938 ft | 257 kts | 115° |
| 2026-04-22 18:35 | 53.57661 | -0.95754 | 7664 ft | 254 kts | 114° |
| 2026-04-22 18:36 | 53.56959 | -0.93050 | 7389 ft | 251 kts | 114° |
| 2026-04-22 18:36 | 53.56266 | -0.90369 | 7120 ft | 249 kts | 114° |
| 2026-04-22 18:36 | 53.55579 | -0.87703 | 6871 ft | 246 kts | 114° |
| 2026-04-22 18:36 | 53.54902 | -0.85070 | 6609 ft | 243 kts | 114° |
| 2026-04-22 18:37 | 53.54242 | -0.82507 | 6357 ft | 240 kts | 114° |
| 2026-04-22 18:37 | 53.53582 | -0.79933 | 6109 ft | 239 kts | 114° |
| 2026-04-22 18:37 | 53.53140 | -0.78205 | 5938 ft | 237 kts | 114° |
| 2026-04-22 18:37 | 53.52277 | -0.74847 | 5613 ft | 234 kts | 114° |
| 2026-04-22 18:38 | 53.51639 | -0.72362 | 5440 ft | 230 kts | 114° |
| 2026-04-22 18:38 | 53.51011 | -0.69924 | 5348 ft | 222 kts | 113° |
| 2026-04-22 18:38 | 53.50419 | -0.67622 | 5258 ft | 206 kts | 113° |
| 2026-04-22 18:39 | 53.49363 | -0.63527 | 5078 ft | 178 kts | 113° |
| 2026-04-22 18:39 | 53.48885 | -0.61671 | 5045 ft | 168 kts | 113° |
| 2026-04-22 18:39 | 53.48421 | -0.59871 | 4977 ft | 166 kts | 113° |
| 2026-04-22 18:39 | 53.47962 | -0.58085 | 4820 ft | 166 kts | 113° |
| 2026-04-22 18:40 | 53.47502 | -0.56309 | 4657 ft | 166 kts | 113° |
| 2026-04-22 18:40 | 53.47034 | -0.54502 | 4302 ft | 175 kts | 112° |
| 2026-04-22 18:40 | 53.46539 | -0.52585 | 3882 ft | 181 kts | 112° |
| 2026-04-22 18:40 | 53.46038 | -0.50653 | 3598 ft | 178 kts | 112° |
| 2026-04-22 18:41 | 53.45549 | -0.48770 | 3379 ft | 173 kts | 111° |
| 2026-04-22 18:41 | 53.45084 | -0.46944 | 3177 ft | 167 kts | 107° |
| 2026-04-22 18:41 | 53.45122 | -0.45125 | 2973 ft | 161 kts | 62° |
| 2026-04-22 18:41 | 53.45909 | -0.43842 | 2817 ft | 156 kts | 47° |
| 2026-04-22 18:42 | 53.46742 | -0.42729 | 2578 ft | 150 kts | 34° |
| 2026-04-22 18:42 | 53.47646 | -0.41950 | 2341 ft | 142 kts | 32° |
| 2026-04-22 18:42 | 53.48539 | -0.41242 | 2146 ft | 142 kts | 28° |
| 2026-04-22 18:42 | 53.49474 | -0.40591 | 1910 ft | 148 kts | 26° |
| 2026-04-22 18:43 | 53.50413 | -0.39942 | 1668 ft | 144 kts | 26° |
| 2026-04-22 18:43 | 53.51337 | -0.39301 | 1456 ft | 144 kts | 26° |
| 2026-04-22 18:43 | 53.52268 | -0.38656 | 1244 ft | 144 kts | 24° |
| 2026-04-22 18:43 | 53.53198 | -0.38017 | 1016 ft | 142 kts | 25° |
| 2026-04-22 18:44 | 53.54101 | -0.37392 | 770 ft | 142 kts | 24° |
| 2026-04-22 18:44 | 53.55031 | -0.36754 | 545 ft | 146 kts | 24° |
| 2026-04-22 18:44 | 53.55970 | -0.36091 | 315 ft | 147 kts | 24° |
| 2026-04-22 18:44 | 53.56904 | -0.35449 | 127 ft | 137 kts | 24° |
| 2026-04-22 18:45 | 53.57681 | -0.34912 | 99 ft | 95 kts | 22° |
| 2026-04-22 18:45 | 53.58110 | -0.34615 | 88 ft | 50 kts | 22° |
| 2026-04-22 18:45 | 53.58306 | -0.34496 | 87 ft | 19 kts | 15° |
| 2026-04-22 18:45 | 53.58335 | -0.34443 | 83 ft | 3 kts | 175° |
| 2026-04-22 18:46 | 53.58310 | -0.34469 | 85 ft | 7 kts | 210° |
| 2026-04-22 18:46 | 53.58248 | -0.34518 | 87 ft | 11 kts | 201° |
| 2026-04-22 18:46 | 53.58176 | -0.34564 | 91 ft | 11 kts | 204° |
| 2026-04-22 18:46 | 53.58100 | -0.34622 | 89 ft | 13 kts | 205° |
| 2026-04-22 18:47 | 53.58057 | -0.34733 | 87 ft | 14 kts | 288° |
| 2026-04-22 18:47 | 53.58142 | -0.34855 | 86 ft | 15 kts | 323° |
| 2026-04-22 18:47 | 53.58199 | -0.34963 | 83 ft | 10 kts | 312° |
| 2026-04-22 18:47 | 53.58242 | -0.34946 | 82 ft | 8 kts | 44° |
| 2026-04-22 18:48 | 53.58261 | -0.34914 | 86 ft | 2 kts | 44° |
| 2026-04-22 18:48 | 53.58263 | -0.34911 | 82 ft | 0 kts | 44° |